createdAt,value
2023-02-16T00:01:25.206Z,16.73
2023-02-16T00:03:54.566Z,19.73
2023-02-16T00:06:24.373Z,20.83
2023-02-16T00:08:54.619Z,17.93
2023-02-16T00:11:45.052Z,16.43
2023-02-16T00:14:14.155Z,19.00
2023-02-16T00:16:43.171Z,15.13
2023-02-16T00:19:19.219Z,16.47
2023-02-16T00:21:49.605Z,17.27
2023-02-16T00:24:17.758Z,13.83
2023-02-16T00:26:46.323Z,15.50
2023-02-16T00:29:21.160Z,16.03
2023-02-16T00:31:50.435Z,22.57
2023-02-16T00:34:33.086Z,23.80
2023-02-16T00:37:04.548Z,19.20
2023-02-16T00:39:33.283Z,16.93
2023-02-16T00:42:04.096Z,14.43
2023-02-16T00:44:35.797Z,23.10
2023-02-16T00:47:10.257Z,17.03
2023-02-16T00:49:38.241Z,17.50
2023-02-16T00:52:30.785Z,17.53
2023-02-16T00:54:59.798Z,17.03
2023-02-16T00:57:31.915Z,13.53
2023-02-16T01:00:03.964Z,21.80
2023-02-16T01:02:31.992Z,15.17
2023-02-16T01:04:59.998Z,17.57
2023-02-16T01:07:46.653Z,20.90
2023-02-16T01:10:32.423Z,15.80
2023-02-16T01:13:00.785Z,20.13
2023-02-16T01:15:28.866Z,21.93
2023-02-16T01:17:56.835Z,17.37
2023-02-16T01:20:27.088Z,16.83
2023-02-16T01:22:56.462Z,16.40
2023-02-16T01:25:24.945Z,20.00
2023-02-16T01:27:52.977Z,20.60
2023-02-16T01:30:22.958Z,17.77
2023-02-16T01:32:52.354Z,20.70
2023-02-16T01:35:20.774Z,18.00
2023-02-16T01:37:48.918Z,21.13
2023-02-16T01:40:31.697Z,23.30
2023-02-16T01:43:05.190Z,16.60
2023-02-16T01:45:36.488Z,19.53
2023-02-16T01:48:06.240Z,17.40
2023-02-16T01:50:44.276Z,23.00
2023-02-16T01:53:21.475Z,21.43
2023-02-16T01:55:56.363Z,20.00
2023-02-16T01:58:35.193Z,19.10
2023-02-16T02:01:34.191Z,18.60
2023-02-16T02:04:19.972Z,23.97
2023-02-16T02:06:48.666Z,21.40
2023-02-16T02:09:23.328Z,27.37
2023-02-16T02:11:57.285Z,18.87
2023-02-16T02:14:29.490Z,21.40
2023-02-16T02:16:59.426Z,19.97
2023-02-16T02:19:27.432Z,16.67
2023-02-16T02:22:38.264Z,14.83
2023-02-16T02:25:30.703Z,16.43
2023-02-16T02:28:09.355Z,15.93
2023-02-16T02:30:47.539Z,17.43
2023-02-16T02:33:27.592Z,13.17
2023-02-16T02:36:06.509Z,14.97
2023-02-16T02:38:41.692Z,19.37
2023-02-16T02:41:18.902Z,20.00
2023-02-16T02:43:57.081Z,19.73
2023-02-16T02:46:30.379Z,18.67
2023-02-16T02:48:58.999Z,15.03
2023-02-16T02:51:30.433Z,18.90
2023-02-16T02:54:19.851Z,18.10
2023-02-16T02:57:09.701Z,15.93
2023-02-16T02:59:58.107Z,15.23
2023-02-16T03:02:27.312Z,20.67
2023-02-16T03:04:57.732Z,10.63
2023-02-16T03:07:46.568Z,12.60
2023-02-16T03:10:34.320Z,9.93
2023-02-16T03:13:03.754Z,15.17
2023-02-16T03:15:34.563Z,9.10
2023-02-16T03:18:23.621Z,11.23
2023-02-16T03:21:09.219Z,11.83
2023-02-16T03:23:56.832Z,8.90
2023-02-16T03:26:44.580Z,14.53
2023-02-16T03:29:18.469Z,11.57
2023-02-16T03:31:48.630Z,11.73
2023-02-16T03:34:17.705Z,13.40
2023-02-16T03:36:49.234Z,15.30
2023-02-16T03:39:17.673Z,10.77
2023-02-16T03:41:50.794Z,9.03
2023-02-16T03:44:19.320Z,9.67
2023-02-16T03:46:50.118Z,12.03
2023-02-16T03:49:18.329Z,10.03
2023-02-16T03:51:46.360Z,10.37
2023-02-16T03:54:14.391Z,9.33
2023-02-16T03:56:42.411Z,8.17
2023-02-16T03:59:10.352Z,9.43
2023-02-16T04:01:38.357Z,9.63
2023-02-16T04:04:07.820Z,8.07
2023-02-16T04:06:35.807Z,8.57
2023-02-16T04:09:03.826Z,5.30
2023-02-16T04:11:49.474Z,8.83
2023-02-16T04:14:17.636Z,7.73
2023-02-16T04:16:46.127Z,5.20
2023-02-16T04:19:15.574Z,9.60
2023-02-16T04:21:43.945Z,11.90
2023-02-16T04:24:12.061Z,6.73
2023-02-16T04:26:40.276Z,5.67
2023-02-16T04:29:08.235Z,10.07
2023-02-16T04:31:36.308Z,7.30
2023-02-16T04:34:04.390Z,10.13
2023-02-16T04:36:34.271Z,5.50
2023-02-16T04:39:02.399Z,5.50
2023-02-16T04:41:30.351Z,7.67
2023-02-16T04:43:58.344Z,7.20
2023-02-16T04:46:26.442Z,12.20
2023-02-16T04:48:54.902Z,7.93
2023-02-16T04:51:23.219Z,5.50
2023-02-16T04:53:52.562Z,6.10
2023-02-16T04:56:20.638Z,7.03
2023-02-16T04:58:48.663Z,8.37
2023-02-16T05:01:21.329Z,6.27
2023-02-16T05:03:49.893Z,6.27
2023-02-16T05:06:18.426Z,6.57
2023-02-16T05:08:46.858Z,7.33
2023-02-16T05:11:34.004Z,5.03
2023-02-16T05:14:19.688Z,6.57
2023-02-16T05:16:47.965Z,7.83
2023-02-16T05:19:16.108Z,5.43
2023-02-16T05:21:44.209Z,6.07
2023-02-16T05:24:13.122Z,5.93
2023-02-16T05:26:42.447Z,4.90
2023-02-16T05:29:10.491Z,6.03
2023-02-16T05:31:38.629Z,6.57
2023-02-16T05:34:06.747Z,8.13
2023-02-16T05:36:34.744Z,6.63
2023-02-16T05:39:02.706Z,8.90
2023-02-16T05:41:30.748Z,4.50
2023-02-16T05:44:02.005Z,8.13
2023-02-16T05:46:32.662Z,7.90
2023-02-16T05:49:00.982Z,6.60
2023-02-16T05:51:29.153Z,7.30
2023-02-16T05:53:57.768Z,8.77
2023-02-16T05:56:26.269Z,6.43
2023-02-16T05:58:54.849Z,6.87
2023-02-16T06:01:24.213Z,8.73
2023-02-16T06:03:52.351Z,7.67
2023-02-16T06:06:20.997Z,7.93
2023-02-16T06:08:49.062Z,12.67
2023-02-16T06:11:34.557Z,7.40
2023-02-16T06:14:03.149Z,14.23
2023-02-16T06:16:34.013Z,8.33
2023-02-16T06:19:02.588Z,5.63
2023-02-16T06:21:31.074Z,7.53
2023-02-16T06:23:59.449Z,8.90
2023-02-16T06:26:27.887Z,8.33
2023-02-16T06:28:56.700Z,6.67
2023-02-16T06:31:25.370Z,6.83
2023-02-16T06:33:56.760Z,20.00
2023-02-16T06:36:25.626Z,11.77
2023-02-16T06:38:53.803Z,7.37
2023-02-16T06:41:32.326Z,6.40
2023-02-16T06:44:00.815Z,6.30
2023-02-16T06:46:30.169Z,7.87
2023-02-16T06:48:59.986Z,7.67
2023-02-16T06:51:28.131Z,6.17
2023-02-16T06:53:56.530Z,9.27
2023-02-16T06:56:25.356Z,10.07
2023-02-16T06:58:53.386Z,9.17
2023-02-16T07:01:23.405Z,7.10
2023-02-16T07:03:51.757Z,9.60
2023-02-16T07:06:21.915Z,7.60
2023-02-16T07:08:49.929Z,7.43
2023-02-16T07:11:19.255Z,8.87
2023-02-16T07:13:47.388Z,6.83
2023-02-16T07:16:16.081Z,7.43
2023-02-16T07:18:44.135Z,7.80
2023-02-16T07:21:12.188Z,5.40
2023-02-16T07:23:41.564Z,7.67
2023-02-16T07:26:09.703Z,7.40
2023-02-16T07:28:38.005Z,8.50
2023-02-16T07:31:10.977Z,10.40
2023-02-16T07:33:39.488Z,7.23
2023-02-16T07:36:08.607Z,8.53
2023-02-16T07:38:36.932Z,9.40
2023-02-16T07:41:09.476Z,9.10
2023-02-16T07:43:38.271Z,10.57
2023-02-16T07:46:06.818Z,7.47
2023-02-16T07:48:34.902Z,9.57
2023-02-16T07:51:03.408Z,9.73
2023-02-16T07:53:31.710Z,10.87
2023-02-16T07:55:59.730Z,7.03
2023-02-16T07:58:29.330Z,11.60
2023-02-16T08:01:06.597Z,7.43
2023-02-16T08:03:34.808Z,9.97
2023-02-16T08:06:03.923Z,9.60
2023-02-16T08:08:32.470Z,11.53
2023-02-16T08:11:00.488Z,12.03
2023-02-16T08:13:29.820Z,11.17
2023-02-16T08:15:57.810Z,9.60
2023-02-16T08:18:25.826Z,10.17
2023-02-16T08:21:03.865Z,15.23
2023-02-16T08:23:32.503Z,10.93
2023-02-16T08:26:00.515Z,14.87
2023-02-16T08:28:29.917Z,13.97
2023-02-16T08:30:57.994Z,9.80
2023-02-16T08:33:25.998Z,12.27
2023-02-16T08:35:54.193Z,8.80
2023-02-16T08:38:22.785Z,12.13
2023-02-16T08:40:51.356Z,9.30
2023-02-16T08:43:19.370Z,12.83
2023-02-16T08:45:49.263Z,17.67
2023-02-16T08:48:17.868Z,9.80
2023-02-16T08:50:53.264Z,13.53
2023-02-16T08:53:21.744Z,15.10
2023-02-16T08:55:53.433Z,18.73
2023-02-16T08:58:21.567Z,12.23
2023-02-16T09:00:51.004Z,12.33
2023-02-16T09:03:19.806Z,13.60
2023-02-16T09:05:47.838Z,11.83
2023-02-16T09:08:15.870Z,19.83
2023-02-16T09:10:44.252Z,16.63
2023-02-16T09:13:14.934Z,18.90
2023-02-16T09:15:43.228Z,14.63
2023-02-16T09:18:14.111Z,13.80
2023-02-16T09:20:46.656Z,19.43
2023-02-16T09:23:14.991Z,18.40
2023-02-16T09:25:43.159Z,20.20
2023-02-16T09:28:11.967Z,16.50
2023-02-16T09:30:40.522Z,16.07
2023-02-16T09:33:08.509Z,14.07
2023-02-16T09:35:40.148Z,14.77
2023-02-16T09:38:08.779Z,16.67
2023-02-16T09:40:38.382Z,14.20
2023-02-16T09:43:17.013Z,14.07
2023-02-16T09:45:48.367Z,13.33
2023-02-16T09:48:25.123Z,12.20
2023-02-16T09:50:55.631Z,18.20
2023-02-16T09:53:31.527Z,21.43
2023-02-16T09:56:09.105Z,23.30
2023-02-16T09:58:43.585Z,18.83
2023-02-16T10:01:20.679Z,15.07
2023-02-16T10:04:06.660Z,18.93
2023-02-16T10:06:49.453Z,22.97
2023-02-16T10:09:19.576Z,25.07
2023-02-16T10:11:54.368Z,45.97
2023-02-16T10:14:31.727Z,38.20
2023-02-16T10:17:07.768Z,37.13
2023-02-16T10:19:40.728Z,45.97
2023-02-16T10:22:17.338Z,63.40
2023-02-16T10:24:52.711Z,89.37
2023-02-16T10:27:23.644Z,22.80
2023-02-16T10:29:51.584Z,21.87
2023-02-16T10:32:29.180Z,29.47
2023-02-16T10:35:06.119Z,55.73
2023-02-16T10:37:49.550Z,38.90
2023-02-16T10:40:25.999Z,36.93
2023-02-16T10:42:59.657Z,33.27
2023-02-16T10:45:34.411Z,47.07
2023-02-16T10:48:02.444Z,38.97
2023-02-16T10:50:37.813Z,17.87
2023-02-16T10:53:14.684Z,13.67
2023-02-16T10:55:42.906Z,21.30
2023-02-16T10:58:18.097Z,18.37
2023-02-16T11:00:53.032Z,13.80
2023-02-16T11:03:25.938Z,17.37
2023-02-16T11:05:54.709Z,18.17
2023-02-16T11:08:25.716Z,13.70
2023-02-16T11:10:54.866Z,15.33
2023-02-16T11:13:30.109Z,16.17
2023-02-16T11:16:01.371Z,22.60
2023-02-16T11:18:34.522Z,21.63
2023-02-16T11:21:04.466Z,18.87
2023-02-16T11:23:35.809Z,18.53
2023-02-16T11:26:06.974Z,18.53
2023-02-16T11:28:37.914Z,19.37
2023-02-16T11:31:17.034Z,16.13
2023-02-16T11:33:57.639Z,18.83
2023-02-16T11:36:33.729Z,15.10
2023-02-16T11:39:06.986Z,18.37
2023-02-16T11:41:35.725Z,20.60
2023-02-16T11:44:04.604Z,17.90
2023-02-16T11:46:41.748Z,19.23
2023-02-16T11:49:23.399Z,22.97
2023-02-16T11:51:51.362Z,20.40
2023-02-16T11:54:21.912Z,21.77
2023-02-16T11:57:04.219Z,26.57
2023-02-16T11:59:37.628Z,24.27
2023-02-16T12:02:42.175Z,24.27
2023-02-16T12:05:36.740Z,30.23
2023-02-16T12:08:24.411Z,41.20
2023-02-16T12:11:09.316Z,33.30
2023-02-16T12:13:44.595Z,35.03
2023-02-16T12:16:25.893Z,24.63
2023-02-16T12:19:07.899Z,34.37
2023-02-16T12:21:42.322Z,38.63
2023-02-16T12:24:24.629Z,33.90
2023-02-16T12:26:57.493Z,51.60
2023-02-16T12:29:39.316Z,54.10
2023-02-16T12:32:37.335Z,60.30
2023-02-16T12:35:29.986Z,60.77
2023-02-16T12:38:05.148Z,73.17
2023-02-16T12:40:42.838Z,75.23
2023-02-16T12:43:27.419Z,71.67
2023-02-16T12:45:59.065Z,67.23
2023-02-16T12:48:41.817Z,36.60
2023-02-16T12:51:13.980Z,47.43
2023-02-16T12:53:47.912Z,55.90
2023-02-16T12:56:20.309Z,65.13
2023-02-16T12:58:55.386Z,80.07
2023-02-16T13:01:27.936Z,80.90
2023-02-16T13:04:00.342Z,90.40
2023-02-16T13:06:33.860Z,77.20
2023-02-16T13:09:12.429Z,81.63
2023-02-16T13:11:46.663Z,107.63
2023-02-16T13:14:19.861Z,118.83
2023-02-16T13:16:51.038Z,112.57
2023-02-16T13:19:19.298Z,113.13
2023-02-16T13:22:30.991Z,150.50
2023-02-16T13:25:22.211Z,144.67
2023-02-16T13:27:57.144Z,139.83
2023-02-16T13:30:51.568Z,140.57
2023-02-16T13:33:52.785Z,110.30
2023-02-16T13:36:40.809Z,89.83
2023-02-16T13:39:34.930Z,20.83
2023-02-16T13:42:29.396Z,14.70
2023-02-16T13:44:59.266Z,32.83
2023-02-16T13:47:32.809Z,41.00
2023-02-16T13:50:02.372Z,55.42
2023-02-16T13:52:34.038Z,60.93
2023-02-16T13:55:05.134Z,59.00
2023-02-16T13:58:04.517Z,70.27
2023-02-16T14:00:36.598Z,76.20
2023-02-16T14:03:12.372Z,96.03
2023-02-16T14:05:42.338Z,99.53
2023-02-16T14:08:19.476Z,97.20
2023-02-16T14:11:19.518Z,96.25
2023-02-16T14:13:50.458Z,115.05
2023-02-16T14:16:33.757Z,109.75
2023-02-16T14:19:06.318Z,50.88
2023-02-16T14:21:39.825Z,67.78
2023-02-16T14:24:12.765Z,94.63
2023-02-16T14:26:56.065Z,128.48
2023-02-16T14:29:28.099Z,121.00
2023-02-16T14:32:01.903Z,139.75
2023-02-16T14:34:38.971Z,136.63
2023-02-16T14:37:31.692Z,158.68
2023-02-16T14:40:15.373Z,143.13
2023-02-16T14:42:51.227Z,148.27
2023-02-16T14:45:47.590Z,171.00
2023-02-16T14:48:31.943Z,178.93
2023-02-16T14:51:30.704Z,148.83
2023-02-16T14:54:36.008Z,166.40
2023-02-16T14:57:08.614Z,149.53
2023-02-16T14:59:43.280Z,150.87
2023-02-16T15:02:26.943Z,159.40
2023-02-16T15:04:54.937Z,162.27
2023-02-16T15:07:26.719Z,161.90
2023-02-16T15:09:57.979Z,165.37
2023-02-16T15:12:30.676Z,166.47
2023-02-16T15:15:02.025Z,157.97
2023-02-16T15:17:35.585Z,154.00
2023-02-16T15:20:11.259Z,154.80
2023-02-16T15:22:49.316Z,165.50
2023-02-16T15:25:24.163Z,174.20
2023-02-16T15:27:59.001Z,186.43
2023-02-16T15:30:28.501Z,178.40
2023-02-16T15:32:59.065Z,134.57
2023-02-16T15:35:35.411Z,102.13
2023-02-16T15:38:08.392Z,122.50
2023-02-16T15:40:37.564Z,128.03
2023-02-16T15:43:27.854Z,134.03
2023-02-16T15:45:56.015Z,128.90
2023-02-16T15:48:27.774Z,133.90
2023-02-16T15:50:59.477Z,141.27
2023-02-16T15:53:39.832Z,136.40
2023-02-16T15:56:26.436Z,164.83
2023-02-16T15:58:54.805Z,164.53
2023-02-16T16:01:31.643Z,160.37
2023-02-16T16:04:06.754Z,151.20
2023-02-16T16:06:36.543Z,136.50
2023-02-16T16:09:08.618Z,151.73
2023-02-16T16:11:38.208Z,163.10
2023-02-16T16:14:07.502Z,166.27
2023-02-16T16:16:36.160Z,162.53
2023-02-16T16:19:09.837Z,187.20
2023-02-16T16:21:49.201Z,176.17
2023-02-16T16:24:34.076Z,183.17
2023-02-16T16:27:05.802Z,176.80
2023-02-16T16:29:37.153Z,177.83
2023-02-16T16:32:06.654Z,162.87
2023-02-16T16:34:38.175Z,166.83
2023-02-16T16:37:08.385Z,162.93
2023-02-16T16:39:41.550Z,168.87
2023-02-16T16:42:24.870Z,155.97
2023-02-16T16:45:02.216Z,168.80
2023-02-16T16:47:34.144Z,150.57
2023-02-16T16:50:05.881Z,161.50
2023-02-16T16:52:37.992Z,149.83
2023-02-16T16:55:31.312Z,166.47
2023-02-16T16:58:01.798Z,164.53
2023-02-16T17:00:34.148Z,160.03
2023-02-16T17:03:02.858Z,177.17
2023-02-16T17:05:30.930Z,170.93
2023-02-16T17:07:58.906Z,151.57
2023-02-16T17:10:28.420Z,147.80
2023-02-16T17:12:58.947Z,152.30
2023-02-16T17:15:35.044Z,122.73
2023-02-16T17:18:03.762Z,112.97
2023-02-16T17:20:32.003Z,108.63
2023-02-16T17:23:04.884Z,100.07
2023-02-16T17:25:37.351Z,96.07
2023-02-16T17:28:06.232Z,95.87
2023-02-16T17:30:35.168Z,117.03
2023-02-16T17:33:03.612Z,110.77
2023-02-16T17:35:32.536Z,130.50
2023-02-16T17:38:00.705Z,124.07
2023-02-16T17:40:28.683Z,135.73
2023-02-16T17:42:58.095Z,140.90
2023-02-16T17:45:26.090Z,141.37
2023-02-16T17:47:54.369Z,153.17
2023-02-16T17:50:22.562Z,134.73
2023-02-16T17:52:56.990Z,152.13
2023-02-16T17:55:25.217Z,163.30
2023-02-16T17:57:53.238Z,162.43
2023-02-16T18:00:23.639Z,170.10
2023-02-16T18:02:51.662Z,169.87
2023-02-16T18:05:19.651Z,165.43
2023-02-16T18:07:47.602Z,178.70
2023-02-16T18:10:20.477Z,177.70
2023-02-16T18:12:49.887Z,184.33
2023-02-16T18:15:17.985Z,183.03
2023-02-16T18:17:47.347Z,164.33
2023-02-16T18:20:16.900Z,184.30
2023-02-16T18:22:45.657Z,164.10
2023-02-16T18:25:13.624Z,177.43
2023-02-16T18:27:41.776Z,180.90
2023-02-16T18:30:10.968Z,168.90
2023-02-16T18:32:39.298Z,157.67
2023-02-16T18:35:09.266Z,158.10
2023-02-16T18:37:37.676Z,166.57
2023-02-16T18:40:08.567Z,153.90
2023-02-16T18:42:36.926Z,164.97
2023-02-16T18:45:06.018Z,182.27
2023-02-16T18:47:34.111Z,198.30
2023-02-16T18:50:02.099Z,190.03
2023-02-16T18:52:31.453Z,192.93
2023-02-16T18:54:59.503Z,193.60
2023-02-16T18:57:27.510Z,203.90
2023-02-16T18:59:55.480Z,192.83
2023-02-16T19:02:23.454Z,184.70
2023-02-16T19:04:51.401Z,186.33
2023-02-16T19:07:21.862Z,180.00
2023-02-16T19:09:51.185Z,187.37
2023-02-16T19:12:19.195Z,182.93
2023-02-16T19:14:47.162Z,184.27
2023-02-16T19:17:15.169Z,183.37
2023-02-16T19:19:43.188Z,166.77
2023-02-16T19:22:11.301Z,168.47
2023-02-16T19:24:39.409Z,177.30
2023-02-16T19:27:08.788Z,174.50
2023-02-16T19:29:37.132Z,175.17
2023-02-16T19:32:05.562Z,174.83
2023-02-16T19:34:34.611Z,173.37
2023-02-16T19:37:02.586Z,177.80
2023-02-16T19:39:30.544Z,168.00
2023-02-16T19:41:59.856Z,179.30
2023-02-16T19:44:29.367Z,181.03
2023-02-16T19:46:57.333Z,182.33
2023-02-16T19:49:25.302Z,181.47
2023-02-16T19:51:54.022Z,179.70
2023-02-16T19:54:22.042Z,178.90
2023-02-16T19:56:50.095Z,173.27
2023-02-16T19:59:18.052Z,174.23
2023-02-16T20:01:47.491Z,173.47
2023-02-16T20:04:15.704Z,182.67
2023-02-16T20:06:44.305Z,176.10
2023-02-16T20:09:13.356Z,181.10
2023-02-16T20:11:42.347Z,187.30
2023-02-16T20:14:11.346Z,186.53
2023-02-16T20:16:39.490Z,189.77
2023-02-16T20:19:08.918Z,192.90
2023-02-16T20:21:36.892Z,201.17
2023-02-16T20:24:06.466Z,191.70
2023-02-16T20:26:36.761Z,186.03
2023-02-16T20:29:06.489Z,184.07
2023-02-16T20:31:36.874Z,192.00
2023-02-16T20:34:06.107Z,198.03
2023-02-16T20:36:36.579Z,191.13
2023-02-16T20:39:07.096Z,195.33
2023-02-16T20:41:35.588Z,188.47
2023-02-16T20:44:03.875Z,193.80
2023-02-16T20:46:31.962Z,190.90
2023-02-16T20:49:00.205Z,197.03
2023-02-16T20:51:28.337Z,120.00
2023-02-16T20:53:59.202Z,189.00
2023-02-16T20:56:28.178Z,173.20
2023-02-16T20:58:57.983Z,178.70
2023-02-16T21:01:28.875Z,181.80
2023-02-16T21:03:58.443Z,185.63
2023-02-16T21:06:26.969Z,176.00
2023-02-16T21:08:57.017Z,174.37
2023-02-16T21:11:25.648Z,177.03
2023-02-16T21:13:53.956Z,171.07
2023-02-16T21:16:22.604Z,183.37
2023-02-16T21:18:51.205Z,186.03
2023-02-16T21:21:19.741Z,175.93
2023-02-16T21:23:50.178Z,185.20
2023-02-16T21:26:21.457Z,176.30
2023-02-16T21:28:50.090Z,164.80
2023-02-16T21:31:20.858Z,166.40
2023-02-16T21:33:49.712Z,170.03
2023-02-16T21:36:20.617Z,160.27
2023-02-16T21:38:49.073Z,172.60
2023-02-16T21:41:25.728Z,164.53
2023-02-16T21:43:57.180Z,168.50
2023-02-16T21:46:26.172Z,166.13
2023-02-16T21:48:54.991Z,160.87
2023-02-16T21:51:25.128Z,157.90
2023-02-16T21:53:54.309Z,164.73
2023-02-16T21:56:28.507Z,158.17
2023-02-16T21:58:56.590Z,161.82
2023-02-16T22:01:26.772Z,97.97
2023-02-16T22:03:58.345Z,137.13
2023-02-16T22:06:28.124Z,164.67
2023-02-16T22:08:56.357Z,162.87
2023-02-16T22:11:25.796Z,167.50
2023-02-16T22:13:54.861Z,150.10
2023-02-16T22:16:23.186Z,165.73
2023-02-16T22:18:51.442Z,159.17
2023-02-16T22:21:19.431Z,160.90
2023-02-16T22:23:47.379Z,154.97
2023-02-16T22:26:22.260Z,159.03
2023-02-16T22:28:51.918Z,159.20
2023-02-16T22:31:20.737Z,175.20
2023-02-16T22:33:48.941Z,171.10
2023-02-16T22:36:16.915Z,154.17
2023-02-16T22:38:45.451Z,182.50
2023-02-16T22:41:13.744Z,179.37
2023-02-16T22:43:42.165Z,187.87
2023-02-16T22:46:15.869Z,194.80
2023-02-16T22:48:44.773Z,202.60
2023-02-16T22:51:19.326Z,189.30
2023-02-16T22:53:47.831Z,193.67
2023-02-16T22:56:17.555Z,203.30
2023-02-16T22:58:45.967Z,194.57
2023-02-16T23:01:18.013Z,200.60
2023-02-16T23:03:47.887Z,187.93
2023-02-16T23:06:18.050Z,189.90
2023-02-16T23:08:47.043Z,196.37
2023-02-16T23:11:14.993Z,190.17
2023-02-16T23:13:42.974Z,193.40
2023-02-16T23:16:13.990Z,193.37
2023-02-16T23:18:43.762Z,195.47
2023-02-16T23:21:15.921Z,193.70
2023-02-16T23:23:44.114Z,193.30
2023-02-16T23:26:12.592Z,187.43
2023-02-16T23:28:42.461Z,193.80
2023-02-16T23:31:12.645Z,197.73
2023-02-16T23:33:41.093Z,192.23
2023-02-16T23:36:10.822Z,194.73
2023-02-16T23:38:39.098Z,196.63
2023-02-16T23:41:09.465Z,207.60
2023-02-16T23:43:37.679Z,200.00
2023-02-16T23:46:06.199Z,197.60
2023-02-16T23:48:34.546Z,195.47
2023-02-16T23:51:02.705Z,201.20
2023-02-16T23:53:32.047Z,200.53
2023-02-16T23:56:00.430Z,180.53
2023-02-16T23:58:29.030Z,194.40
